createdAt,value
2019-05-14T00:02:07.575Z,40.97
2019-05-14T00:04:42.247Z,42.87
2019-05-14T00:07:16.065Z,46.23
2019-05-14T00:09:48.078Z,44.00
2019-05-14T00:12:22.122Z,42.77
2019-05-14T00:14:54.714Z,39.07
2019-05-14T00:17:27.210Z,34.10
2019-05-14T00:20:07.182Z,31.43
2019-05-14T00:22:33.563Z,29.63
2019-05-14T00:25:05.779Z,27.67
2019-05-14T00:27:38.419Z,25.50
2019-05-14T00:30:12.960Z,30.53
2019-05-14T00:32:45.438Z,32.20
2019-05-14T00:37:53.920Z,36.63
2019-05-14T00:40:31.479Z,38.93
2019-05-14T00:43:05.528Z,39.43
2019-05-14T00:45:41.767Z,40.67
2019-05-14T00:48:17.760Z,44.73
2019-05-14T00:50:51.702Z,39.23
2019-05-14T00:53:24.961Z,44.07
2019-05-14T00:55:58.453Z,43.07
2019-05-14T00:58:31.235Z,46.53
2019-05-14T01:01:03.144Z,41.40
2019-05-14T01:03:35.157Z,43.90
2019-05-14T01:06:07.594Z,42.53
2019-05-14T01:08:42.432Z,47.53
2019-05-14T01:11:15.061Z,45.90
2019-05-14T01:13:48.357Z,45.23
2019-05-14T01:16:22.507Z,50.40
2019-05-14T01:18:53.758Z,52.53
2019-05-14T01:21:28.486Z,55.87
2019-05-14T01:24:02.065Z,47.13
2019-05-14T01:26:33.585Z,56.97
2019-05-14T01:29:06.156Z,56.27
2019-05-14T01:31:38.951Z,50.83
2019-05-14T01:34:12.356Z,55.37
2019-05-14T01:36:45.047Z,52.10
2019-05-14T01:39:17.432Z,52.53
2019-05-14T01:41:51.751Z,51.07
2019-05-14T01:44:25.190Z,49.23
2019-05-14T01:46:57.680Z,48.30
2019-05-14T01:49:31.841Z,50.60
2019-05-14T01:52:04.985Z,47.83
2019-05-14T01:54:37.277Z,44.73
2019-05-14T01:57:11.599Z,41.37
2019-05-14T01:59:54.322Z,38.77
2019-05-14T02:02:26.318Z,39.33
2019-05-14T02:04:58.775Z,47.80
2019-05-14T02:07:31.449Z,48.40
2019-05-14T02:10:04.520Z,48.17
2019-05-14T02:12:36.484Z,44.50
2019-05-14T02:15:09.183Z,45.77
2019-05-14T02:17:41.681Z,40.50
2019-05-14T02:20:13.720Z,45.87
2019-05-14T02:22:47.041Z,47.43
2019-05-14T02:25:21.554Z,44.80
2019-05-14T02:27:54.712Z,46.73
2019-05-14T02:30:41.430Z,49.03
2019-05-14T02:33:00.354Z,52.90
2019-05-14T02:35:32.373Z,58.17
2019-05-14T02:38:05.784Z,55.57
2019-05-14T02:40:40.396Z,53.30
2019-05-14T02:43:12.288Z,48.27
2019-05-14T02:46:02.054Z,54.83
2019-05-14T02:48:20.358Z,50.93
2019-05-14T02:50:52.456Z,54.33
2019-05-14T02:53:25.094Z,50.30
2019-05-14T02:55:59.246Z,50.90
2019-05-14T02:58:30.904Z,48.37
2019-05-14T03:01:02.956Z,51.87
2019-05-14T03:03:34.535Z,46.07
2019-05-14T03:06:09.453Z,50.43
2019-05-14T03:08:40.675Z,47.60
2019-05-14T03:11:13.504Z,50.27
2019-05-14T03:13:49.290Z,44.17
2019-05-14T03:16:29.293Z,45.50
2019-05-14T03:18:54.141Z,54.27
2019-05-14T03:21:26.308Z,55.07
2019-05-14T03:24:00.816Z,57.27
2019-05-14T03:26:32.691Z,62.97
2019-05-14T03:29:04.660Z,53.93
2019-05-14T03:31:41.884Z,58.30
2019-05-14T03:34:13.600Z,50.03
2019-05-14T03:36:44.386Z,55.53
2019-05-14T03:39:19.075Z,46.43
2019-05-14T03:41:50.637Z,45.67
2019-05-14T03:44:23.139Z,51.67
2019-05-14T03:47:00.761Z,40.70
2019-05-14T03:49:30.063Z,41.70
2019-05-14T03:52:03.630Z,34.10
2019-05-14T03:54:40.237Z,35.47
2019-05-14T03:57:11.806Z,34.63
2019-05-14T03:59:43.840Z,34.20
2019-05-14T04:02:19.593Z,35.37
2019-05-14T04:04:50.589Z,28.37
2019-05-14T04:07:23.782Z,34.30
2019-05-14T04:09:59.514Z,37.63
2019-05-14T04:12:35.464Z,38.37
2019-05-14T04:15:09.844Z,40.47
2019-05-14T04:17:43.723Z,37.23
2019-05-14T04:20:15.877Z,34.53
2019-05-14T04:22:51.154Z,34.07
2019-05-14T04:25:23.584Z,31.47
2019-05-14T04:27:59.688Z,31.50
2019-05-14T04:30:31.783Z,31.23
2019-05-14T04:33:14.753Z,37.23
2019-05-14T04:35:49.010Z,34.97
2019-05-14T04:38:21.475Z,32.80
2019-05-14T04:40:53.763Z,33.60
2019-05-14T04:43:25.872Z,31.33
2019-05-14T04:45:59.362Z,34.10
2019-05-14T04:48:37.647Z,33.20
2019-05-14T04:51:09.795Z,31.27
2019-05-14T04:53:41.203Z,37.43
2019-05-14T04:56:14.905Z,39.83
2019-05-14T04:58:49.698Z,38.93
2019-05-14T05:01:21.783Z,38.43
2019-05-14T05:03:55.183Z,40.10
2019-05-14T05:06:29.140Z,40.13
2019-05-14T05:09:01.722Z,39.27
2019-05-14T05:11:39.090Z,48.37
2019-05-14T05:14:09.555Z,44.87
2019-05-14T05:16:41.536Z,48.43
2019-05-14T05:19:13.112Z,45.07
2019-05-14T05:21:48.095Z,46.83
2019-05-14T05:24:21.243Z,50.03
2019-05-14T05:26:52.956Z,45.80
2019-05-14T05:29:28.427Z,44.40
2019-05-14T05:32:01.448Z,45.60
2019-05-14T05:34:33.053Z,44.30
2019-05-14T05:37:08.662Z,40.80
2019-05-14T05:39:42.371Z,41.70
2019-05-14T05:42:14.283Z,35.77
2019-05-14T05:44:48.355Z,37.33
2019-05-14T05:47:22.455Z,39.93
2019-05-14T05:49:54.776Z,42.33
2019-05-14T05:52:28.315Z,35.27
2019-05-14T05:55:00.508Z,34.13
2019-05-14T05:57:33.435Z,44.20
2019-05-14T06:00:09.416Z,34.53
2019-05-14T06:02:43.115Z,32.90
2019-05-14T06:05:15.544Z,37.10
2019-05-14T06:07:48.366Z,31.20
2019-05-14T06:10:21.950Z,30.03
2019-05-14T06:12:58.400Z,30.60
2019-05-14T06:15:44.458Z,30.87
2019-05-14T06:18:15.099Z,31.30
2019-05-14T06:20:38.893Z,26.83
2019-05-14T06:23:11.971Z,28.00
2019-05-14T06:25:44.738Z,29.70
2019-05-14T06:28:20.565Z,27.47
2019-05-14T06:30:52.170Z,27.57
2019-05-14T06:33:28.375Z,28.00
2019-05-14T06:36:00.016Z,24.57
2019-05-14T06:38:32.802Z,23.03
2019-05-14T06:41:05.123Z,36.37
2019-05-14T06:43:39.289Z,22.87
2019-05-14T06:46:11.608Z,29.40
2019-05-14T06:48:48.361Z,32.67
2019-05-14T06:51:20.374Z,24.90
2019-05-14T06:53:53.181Z,25.63
2019-05-14T06:56:28.256Z,23.37
2019-05-14T06:59:00.639Z,21.40
2019-05-14T07:01:32.550Z,29.33
2019-05-14T07:04:06.120Z,30.20
2019-05-14T07:06:41.248Z,36.73
2019-05-14T07:09:14.851Z,35.33
2019-05-14T07:11:49.235Z,32.00
2019-05-14T07:14:21.779Z,24.43
2019-05-14T07:16:54.863Z,26.97
2019-05-14T07:19:29.505Z,31.87
2019-05-14T07:22:02.211Z,29.53
2019-05-14T07:24:37.009Z,36.37
2019-05-14T07:27:09.609Z,29.77
2019-05-14T07:29:43.899Z,25.80
2019-05-14T07:32:18.898Z,23.57
2019-05-14T07:34:52.548Z,25.87
2019-05-14T07:37:24.279Z,28.53
2019-05-14T07:39:57.855Z,31.20
2019-05-14T07:42:32.832Z,32.27
2019-05-14T07:45:09.540Z,36.50
2019-05-14T07:47:43.928Z,32.77
2019-05-14T07:50:19.647Z,35.80
2019-05-14T07:52:51.720Z,37.60
2019-05-14T07:55:25.343Z,38.17
2019-05-14T07:57:58.750Z,31.20
2019-05-14T08:00:31.408Z,33.83
2019-05-14T08:03:04.970Z,34.83
2019-05-14T08:05:38.964Z,33.00
2019-05-14T08:08:12.610Z,36.37
2019-05-14T08:10:48.616Z,34.73
2019-05-14T08:13:20.547Z,34.30
2019-05-14T08:15:53.651Z,40.17
2019-05-14T08:18:28.712Z,37.67
2019-05-14T08:21:01.033Z,37.53
2019-05-14T08:23:33.328Z,37.73
2019-05-14T08:26:07.909Z,39.07
2019-05-14T08:28:40.624Z,40.43
2019-05-14T08:31:13.862Z,39.37
2019-05-14T08:33:48.927Z,33.67
2019-05-14T08:36:22.107Z,34.43
2019-05-14T08:38:54.735Z,29.33
2019-05-14T08:41:28.954Z,32.67
2019-05-14T08:44:02.150Z,25.50
2019-05-14T08:46:38.684Z,26.00
2019-05-14T08:49:10.264Z,33.57
2019-05-14T08:51:43.761Z,29.93
2019-05-14T08:54:18.855Z,30.23
2019-05-14T08:56:53.050Z,32.30
2019-05-14T08:59:28.644Z,32.23
2019-05-14T09:02:06.612Z,32.43
2019-05-14T09:04:42.404Z,29.20
2019-05-14T09:07:10.936Z,25.80
2019-05-14T09:09:44.207Z,30.47
2019-05-14T09:12:28.142Z,29.73
2019-05-14T09:15:00.775Z,29.83
2019-05-14T09:17:35.506Z,29.90
2019-05-14T09:20:12.103Z,29.73
2019-05-14T09:22:49.203Z,32.90
2019-05-14T09:25:21.763Z,27.83
2019-05-14T09:27:54.448Z,29.00
2019-05-14T09:30:29.119Z,34.67
2019-05-14T09:33:02.508Z,28.83
2019-05-14T09:35:38.446Z,28.90
2019-05-14T09:38:10.500Z,39.57
2019-05-14T09:40:43.334Z,33.80
2019-05-14T09:43:18.124Z,32.03
2019-05-14T09:45:51.419Z,30.67
2019-05-14T09:48:25.107Z,36.07
2019-05-14T09:50:58.891Z,28.77
2019-05-14T09:53:32.511Z,27.40
2019-05-14T09:56:04.604Z,31.47
2019-05-14T09:58:38.705Z,27.53
2019-05-14T10:01:13.255Z,24.63
2019-05-14T10:03:46.279Z,26.97
2019-05-14T10:06:20.904Z,25.47
2019-05-14T10:08:53.205Z,26.83
2019-05-14T10:11:28.788Z,32.27
2019-05-14T10:14:01.308Z,22.23
2019-05-14T10:16:34.794Z,26.47
2019-05-14T10:19:07.637Z,28.90
2019-05-14T10:21:42.923Z,30.83
2019-05-14T10:24:18.390Z,25.23
2019-05-14T10:26:52.104Z,23.43
2019-05-14T10:29:28.594Z,22.07
2019-05-14T10:32:02.818Z,23.57
2019-05-14T10:34:36.534Z,27.90
2019-05-14T10:37:10.861Z,28.97
2019-05-14T10:39:45.058Z,27.87
2019-05-14T10:42:20.924Z,21.77
2019-05-14T10:44:54.389Z,23.93
2019-05-14T10:47:29.195Z,29.30
2019-05-14T10:50:13.740Z,23.07
2019-05-14T10:52:48.850Z,27.13
2019-05-14T10:55:23.707Z,20.20
2019-05-14T10:58:37.745Z,22.57
2019-05-14T11:01:20.664Z,18.87
2019-05-14T11:03:52.835Z,22.50
2019-05-14T11:06:29.298Z,12.00
2019-05-14T11:09:02.007Z,15.10
2019-05-14T11:11:58.202Z,15.50
2019-05-14T11:14:31.921Z,26.30
2019-05-14T11:17:04.331Z,8.47
2019-05-14T11:19:39.024Z,14.00
2019-05-14T11:22:12.088Z,10.53
2019-05-14T11:24:46.144Z,12.67
2019-05-14T11:27:19.825Z,8.77
2019-05-14T11:29:52.246Z,8.63
2019-05-14T11:32:28.971Z,10.10
2019-05-14T11:35:00.114Z,6.83
2019-05-14T11:37:35.256Z,7.23
2019-05-14T11:40:08.987Z,8.80
2019-05-14T11:42:42.753Z,8.50
2019-05-14T11:45:17.360Z,15.63
2019-05-14T11:47:52.452Z,11.53
2019-05-14T11:50:25.444Z,13.77
2019-05-14T11:53:00.302Z,14.87
2019-05-14T11:55:33.408Z,19.30
2019-05-14T11:58:08.745Z,13.30
2019-05-14T12:00:44.326Z,15.27
2019-05-14T12:03:19.947Z,16.50
2019-05-14T12:05:54.098Z,13.50
2019-05-14T12:08:28.888Z,18.43
2019-05-14T12:11:01.520Z,15.17
2019-05-14T12:13:35.004Z,19.07
2019-05-14T12:16:08.601Z,26.17
2019-05-14T12:18:42.558Z,29.70
2019-05-14T12:21:15.419Z,37.17
2019-05-14T12:23:49.424Z,23.90
2019-05-14T12:26:22.679Z,15.30
2019-05-14T12:28:56.173Z,15.27
2019-05-14T12:31:31.122Z,16.33
2019-05-14T12:34:05.732Z,15.43
2019-05-14T12:36:39.641Z,15.83
2019-05-14T12:39:12.645Z,13.43
2019-05-14T12:41:44.861Z,12.23
2019-05-14T12:44:19.562Z,13.23
2019-05-14T12:46:52.741Z,10.80
2019-05-14T12:49:26.307Z,9.90
2019-05-14T12:52:00.758Z,13.17
2019-05-14T12:54:33.888Z,10.37
2019-05-14T12:57:05.418Z,12.47
2019-05-14T12:59:39.233Z,17.00
2019-05-14T13:02:12.243Z,16.50
2019-05-14T13:04:49.841Z,17.73
2019-05-14T13:07:24.987Z,15.30
2019-05-14T13:09:59.237Z,16.57
2019-05-14T13:12:32.169Z,18.57
2019-05-14T13:15:08.709Z,15.70
2019-05-14T13:17:42.763Z,18.03
2019-05-14T13:20:18.365Z,18.60
2019-05-14T13:22:51.714Z,16.47
2019-05-14T13:25:25.400Z,17.43
2019-05-14T13:27:59.465Z,18.10
2019-05-14T13:30:39.442Z,20.20
2019-05-14T13:33:19.211Z,20.43
2019-05-14T13:35:52.736Z,21.23
2019-05-14T13:38:27.178Z,17.67
2019-05-14T13:41:00.251Z,21.57
2019-05-14T13:43:32.787Z,19.47
2019-05-14T13:46:05.366Z,19.63
2019-05-14T13:48:43.178Z,22.10
2019-05-14T13:51:15.456Z,37.10
2019-05-14T13:53:51.328Z,19.67
2019-05-14T13:56:24.488Z,18.13
2019-05-14T13:58:59.113Z,17.53
2019-05-14T14:01:34.565Z,17.57
2019-05-14T14:04:12.514Z,16.20
2019-05-14T14:06:42.981Z,26.67
2019-05-14T14:09:17.253Z,18.70
2019-05-14T14:11:50.225Z,24.87
2019-05-14T14:14:23.330Z,15.47
2019-05-14T14:16:58.267Z,18.73
2019-05-14T14:19:31.144Z,15.60
2019-05-14T14:22:04.011Z,15.40
2019-05-14T14:24:38.699Z,14.60
2019-05-14T14:27:11.625Z,18.03
2019-05-14T14:29:45.019Z,12.90
2019-05-14T14:32:19.369Z,15.97
2019-05-14T14:34:53.715Z,15.83
2019-05-14T14:37:28.519Z,14.87
2019-05-14T14:40:02.022Z,14.00
2019-05-14T14:42:36.198Z,12.73
2019-05-14T14:45:09.681Z,12.73
2019-05-14T14:47:43.019Z,14.73
2019-05-14T14:50:19.213Z,14.50
2019-05-14T14:52:51.808Z,11.47
2019-05-14T14:55:25.103Z,18.80
2019-05-14T14:58:00.314Z,17.57
2019-05-14T15:00:33.928Z,19.80
2019-05-14T15:03:10.086Z,17.17
2019-05-14T15:05:44.665Z,13.80
2019-05-14T15:08:20.061Z,21.03
2019-05-14T15:10:53.410Z,14.80
2019-05-14T15:13:27.619Z,17.10
2019-05-14T15:16:01.097Z,14.23
2019-05-14T15:18:34.985Z,15.83
2019-05-14T15:21:09.665Z,18.97
2019-05-14T15:23:45.135Z,14.03
2019-05-14T15:26:19.298Z,16.77
2019-05-14T15:28:52.011Z,18.33
2019-05-14T15:31:25.284Z,18.30
2019-05-14T15:33:59.609Z,23.13
2019-05-14T15:36:35.893Z,20.20
2019-05-14T15:39:10.616Z,18.03
2019-05-14T15:41:45.433Z,19.23
2019-05-14T15:44:19.882Z,19.77
2019-05-14T15:46:53.114Z,21.03
2019-05-14T15:49:28.421Z,23.67
2019-05-14T15:52:03.108Z,21.27
2019-05-14T15:54:47.047Z,21.17
2019-05-14T15:57:19.447Z,18.03
2019-05-14T15:59:52.648Z,20.57
2019-05-14T16:02:29.587Z,20.07
2019-05-14T16:05:01.974Z,21.20
2019-05-14T16:07:39.047Z,30.87
2019-05-14T16:10:13.207Z,20.20
2019-05-14T16:12:45.735Z,22.13
2019-05-14T16:15:19.810Z,20.87
2019-05-14T16:18:06.309Z,21.43
2019-05-14T16:20:29.704Z,20.73
2019-05-14T16:23:02.942Z,21.93
2019-05-14T16:25:38.005Z,28.53
2019-05-14T16:28:11.657Z,22.57
2019-05-14T16:30:49.156Z,23.60
2019-05-14T16:33:22.663Z,21.47
2019-05-14T16:36:08.629Z,20.47
2019-05-14T16:38:44.176Z,22.43
2019-05-14T16:41:18.595Z,19.53
2019-05-14T16:43:51.692Z,21.67
2019-05-14T16:46:28.898Z,26.07
2019-05-14T16:49:03.422Z,23.80
2019-05-14T16:51:37.229Z,26.83
2019-05-14T16:54:11.057Z,30.73
2019-05-14T16:56:52.878Z,26.07
2019-05-14T16:59:25.956Z,30.50
2019-05-14T17:02:09.349Z,31.70
2019-05-14T17:04:43.542Z,33.07
2019-05-14T17:07:28.903Z,39.93
2019-05-14T17:10:04.321Z,47.20
2019-05-14T17:12:52.499Z,47.23
2019-05-14T17:15:18.031Z,33.73
2019-05-14T17:17:50.535Z,30.47
2019-05-14T17:20:24.505Z,34.23
2019-05-14T17:22:59.468Z,25.47
2019-05-14T17:25:31.744Z,24.07
2019-05-14T17:28:05.156Z,27.73
2019-05-14T17:30:38.505Z,32.13
2019-05-14T17:33:13.254Z,25.43
2019-05-14T17:35:48.317Z,32.40
2019-05-14T17:38:24.326Z,31.30
2019-05-14T17:40:59.825Z,30.60
2019-05-14T17:43:33.044Z,30.80
2019-05-14T17:46:06.415Z,29.93
2019-05-14T17:48:39.164Z,33.03
2019-05-14T17:51:13.029Z,35.20
2019-05-14T17:53:48.137Z,30.00
2019-05-14T17:56:23.046Z,31.17
2019-05-14T17:58:57.936Z,29.30
2019-05-14T18:01:31.806Z,27.23
2019-05-14T18:04:04.374Z,27.10
2019-05-14T18:06:37.427Z,26.17
2019-05-14T18:09:10.657Z,26.20
2019-05-14T18:11:43.360Z,32.17
2019-05-14T18:14:18.959Z,28.33
2019-05-14T18:16:55.508Z,24.17
2019-05-14T18:19:28.924Z,28.50
2019-05-14T18:22:03.262Z,29.77
2019-05-14T18:24:36.166Z,27.07
2019-05-14T18:27:11.300Z,32.10
2019-05-14T18:29:50.234Z,35.00
2019-05-14T18:32:23.077Z,31.83
2019-05-14T18:34:58.112Z,32.63
2019-05-14T18:37:30.384Z,56.97
2019-05-14T18:40:04.427Z,46.03
2019-05-14T18:42:39.769Z,39.87
2019-05-14T18:45:13.927Z,46.10
2019-05-14T18:47:48.499Z,38.27
2019-05-14T18:50:21.555Z,37.33
2019-05-14T18:52:54.608Z,40.37
2019-05-14T18:55:29.325Z,44.00
2019-05-14T18:58:03.548Z,44.27
2019-05-14T19:00:35.391Z,47.53
2019-05-14T19:03:09.539Z,42.97
2019-05-14T19:05:43.586Z,31.97
2019-05-14T19:08:17.944Z,30.80
2019-05-14T19:10:52.389Z,39.07
2019-05-14T19:13:25.588Z,44.97
2019-05-14T19:15:59.769Z,37.90
2019-05-14T19:18:34.276Z,38.40
2019-05-14T19:21:09.531Z,35.07
2019-05-14T19:23:45.327Z,31.90
2019-05-14T19:26:33.107Z,46.37
2019-05-14T19:28:53.431Z,42.13
2019-05-14T19:31:27.857Z,31.33
2019-05-14T19:34:00.664Z,32.40
2019-05-14T19:36:34.596Z,36.30
2019-05-14T19:39:09.727Z,38.67
2019-05-14T19:41:43.660Z,35.13
2019-05-14T19:44:19.089Z,37.33
2019-05-14T19:46:51.679Z,32.20
2019-05-14T19:49:25.614Z,42.07
2019-05-14T19:52:00.517Z,36.40
2019-05-14T19:54:32.900Z,33.53
2019-05-14T19:57:05.927Z,32.93
2019-05-14T19:59:39.487Z,40.90
2019-05-14T20:02:12.364Z,39.10
2019-05-14T20:04:46.444Z,37.93
2019-05-14T20:07:20.339Z,42.13
2019-05-14T20:09:54.341Z,36.53
2019-05-14T20:12:28.768Z,37.47
2019-05-14T20:15:03.570Z,38.63
2019-05-14T20:20:39.387Z,34.83
2019-05-14T20:23:41.067Z,33.53
2019-05-14T20:26:16.175Z,35.30
2019-05-14T20:28:53.425Z,35.03
2019-05-14T20:31:29.533Z,32.87
2019-05-14T20:34:02.383Z,38.67
2019-05-14T20:36:38.781Z,34.03
2019-05-14T20:39:12.148Z,41.13
2019-05-14T20:41:48.883Z,37.63
2019-05-14T20:44:22.143Z,35.37
2019-05-14T20:46:58.226Z,33.87
2019-05-14T20:49:32.071Z,34.90
2019-05-14T20:52:08.608Z,32.57
2019-05-14T20:54:41.951Z,35.00
2019-05-14T20:57:26.387Z,38.23
2019-05-14T20:59:50.183Z,40.10
2019-05-14T21:02:23.003Z,42.27
2019-05-14T21:04:56.013Z,41.10
2019-05-14T21:07:30.358Z,40.90
2019-05-14T21:10:02.877Z,42.20
2019-05-14T21:12:35.423Z,46.07
2019-05-14T21:15:09.989Z,40.90
2019-05-14T21:17:43.727Z,45.73
2019-05-14T21:20:18.451Z,44.27
2019-05-14T21:22:51.867Z,48.33
2019-05-14T21:25:26.144Z,43.50
2019-05-14T21:28:00.003Z,45.17
2019-05-14T21:30:35.363Z,42.10
2019-05-14T21:33:09.154Z,46.07
2019-05-14T21:35:42.204Z,46.83
2019-05-14T21:38:14.745Z,44.23
2019-05-14T21:40:49.964Z,50.90
2019-05-14T21:43:24.252Z,47.13
2019-05-14T21:45:58.498Z,45.87
2019-05-14T21:48:31.214Z,43.03
2019-05-14T21:51:04.293Z,47.03
2019-05-14T21:53:38.687Z,39.43
2019-05-14T21:56:11.498Z,41.27
2019-05-14T21:58:45.144Z,39.73
2019-05-14T22:01:18.856Z,42.80
2019-05-14T22:03:51.424Z,62.87
2019-05-14T22:06:24.056Z,71.37
2019-05-14T22:09:00.369Z,68.27
2019-05-14T22:11:33.314Z,80.77
2019-05-14T22:14:07.920Z,65.30
2019-05-14T22:16:42.663Z,70.90
2019-05-14T22:19:16.326Z,76.67
2019-05-14T22:21:50.540Z,72.93
2019-05-14T22:24:23.506Z,70.47
2019-05-14T22:26:58.190Z,60.20
2019-05-14T22:29:34.390Z,53.80
2019-05-14T22:32:08.227Z,54.67
2019-05-14T22:34:41.443Z,58.63
2019-05-14T22:37:14.035Z,52.33
2019-05-14T22:39:47.969Z,53.30
2019-05-14T22:42:20.179Z,54.30
2019-05-14T22:44:53.515Z,69.27
2019-05-14T22:47:28.514Z,64.50
2019-05-14T22:50:01.250Z,54.23
2019-05-14T22:52:34.410Z,68.87
2019-05-14T22:55:06.741Z,57.90
2019-05-14T22:57:40.033Z,59.53
2019-05-14T23:00:13.906Z,57.43
2019-05-14T23:02:48.761Z,54.43
2019-05-14T23:05:21.071Z,60.17
2019-05-14T23:07:53.871Z,60.37
2019-05-14T23:10:26.336Z,66.67
2019-05-14T23:12:58.882Z,56.60
2019-05-14T23:15:32.072Z,58.93
2019-05-14T23:18:03.874Z,56.60
2019-05-14T23:20:39.034Z,59.13
2019-05-14T23:23:10.708Z,59.40
2019-05-14T23:25:44.220Z,60.47
2019-05-14T23:28:19.067Z,57.87
2019-05-14T23:30:51.981Z,65.40
2019-05-14T23:33:24.138Z,67.57
2019-05-14T23:35:57.081Z,77.97
2019-05-14T23:38:29.907Z,72.77
2019-05-14T23:41:02.878Z,83.43
2019-05-14T23:43:38.837Z,88.57
2019-05-14T23:46:11.438Z,112.63
2019-05-14T23:48:44.532Z,107.67
2019-05-14T23:51:18.233Z,99.87
2019-05-14T23:53:51.513Z,89.17
2019-05-14T23:56:24.775Z,84.57
2019-05-14T23:59:01.378Z,75.57
